Time;durP1;ratioP1;P1;durP2;ratioP2;P2;SDS_P1;SDS_P2;PMS_P1;PMS_P2;Temp;Humidity;BMP_temperature;BMP_pressure;BME280_temperature;BME280_humidity;BME280_pressure;Samples;Min_cycle;Max_cycle;Signal;HPM_P1;HPM_P2
2023/11/30 00:01:55;;;;;;;9.00;6.90;;;;;;;5.44;54.13;96176.06;5058963;28;20186;-68
2023/11/30 00:04:21;;;;;;;12.30;7.20;;;;;;;5.35;54.18;96168.19;5051389;28;20340;-69
2023/11/30 00:06:46;;;;;;;11.20;7.60;;;;;;;5.37;54.22;96174.06;5032061;28;20194;-68
2023/11/30 00:09:12;;;;;;;8.67;6.97;;;;;;;5.34;54.97;96170.94;5049243;28;20249;-68
2023/11/30 00:11:37;;;;;;;11.13;6.80;;;;;;;5.29;54.78;96160.16;5055938;28;20219;-70
2023/11/30 00:14:03;;;;;;;8.80;6.30;;;;;;;5.28;54.59;96161.94;5063361;28;20277;-70
2023/11/30 00:16:28;;;;;;;11.10;6.43;;;;;;;5.20;54.85;96162.66;5065377;28;20194;-67
2023/11/30 00:18:53;;;;;;;10.37;6.50;;;;;;;5.17;54.81;96159.50;5064267;28;20271;-67
2023/11/30 00:21:19;;;;;;;11.50;7.37;;;;;;;5.16;55.13;96158.69;5067639;28;20193;-68
2023/11/30 00:23:44;;;;;;;8.40;6.90;;;;;;;5.18;54.89;96150.75;5068200;28;20216;-69
2023/11/30 00:26:11;;;;;;;9.83;6.63;;;;;;;5.19;55.48;96152.38;5068380;28;20561;-69
2023/11/30 00:28:36;;;;;;;8.23;6.90;;;;;;;5.21;54.89;96147.88;5066830;28;20241;-71
2023/11/30 00:31:02;;;;;;;8.03;6.57;;;;;;;5.17;54.88;96139.56;5058567;28;20855;-67
2023/11/30 00:33:27;;;;;;;9.40;7.20;;;;;;;5.11;55.32;96141.91;5066017;28;20692;-69
2023/11/30 00:35:52;;;;;;;10.50;6.80;;;;;;;5.19;54.81;96136.81;5067825;28;20221;-67
2023/11/30 00:38:18;;;;;;;10.53;6.93;;;;;;;5.12;54.82;96133.16;5064935;28;20242;-70
2023/11/30 00:40:43;;;;;;;7.53;6.23;;;;;;;5.12;54.85;96130.56;5063478;28;20191;-69
2023/11/30 00:43:09;;;;;;;8.33;6.30;;;;;;;5.18;55.02;96127.38;5057148;28;20614;-68
2023/11/30 00:45:34;;;;;;;9.30;6.27;;;;;;;5.13;55.06;96117.41;5066907;28;20628;-69
2023/11/30 00:48:00;;;;;;;7.83;6.40;;;;;;;5.04;54.91;96118.28;5067171;28;20309;-68
2023/11/30 00:50:25;;;;;;;13.23;6.50;;;;;;;5.01;55.72;96119.41;5058670;28;20274;-69
2023/11/30 00:52:50;;;;;;;8.23;6.00;;;;;;;5.00;55.54;96117.78;5067266;28;20221;-68
2023/11/30 00:55:16;;;;;;;10.30;7.13;;;;;;;5.07;55.53;96111.03;5067076;28;20194;-70
2023/11/30 00:57:41;;;;;;;11.40;7.30;;;;;;;5.07;55.13;96108.44;5045302;28;20219;-70
2023/11/30 01:00:09;;;;;;;12.10;6.90;;;;;;;5.14;55.57;96107.88;5056204;28;20895;-69
2023/11/30 01:02:35;;;;;;;8.57;6.93;;;;;;;5.16;55.09;96111.94;5066981;28;20194;-68
2023/11/30 01:05:01;;;;;;;9.90;6.83;;;;;;;5.17;55.46;96113.59;5067434;28;21012;-68
2023/11/30 01:07:27;;;;;;;8.57;6.23;;;;;;;5.17;55.26;96116.19;5068385;28;20785;-72
2023/11/30 01:09:52;;;;;;;9.00;6.00;;;;;;;5.15;54.76;96122.50;5064939;28;20519;-70
2023/11/30 01:12:17;;;;;;;7.63;5.77;;;;;;;5.13;54.85;96122.63;5067951;28;20202;-69
2023/11/30 01:14:43;;;;;;;7.47;5.90;;;;;;;5.12;55.14;96130.56;5071064;28;20710;-68
2023/11/30 01:17:08;;;;;;;8.17;5.70;;;;;;;5.15;54.80;96127.69;5050235;28;20202;-68
2023/11/30 01:19:34;;;;;;;7.23;6.00;;;;;;;5.16;55.13;96126.72;5069671;28;20226;-68
2023/11/30 01:21:59;;;;;;;12.10;6.80;;;;;;;5.15;54.63;96125.09;5071127;28;20273;-68
2023/11/30 01:24:25;;;;;;;7.53;5.93;;;;;;;5.11;54.81;96121.94;5069685;28;20269;-69
2023/11/30 01:26:50;;;;;;;8.40;6.20;;;;;;;5.14;54.39;96120.84;5062899;28;20194;-70
2023/11/30 01:29:16;;;;;;;8.00;6.40;;;;;;;5.19;54.68;96119.44;5062423;28;20289;-70
2023/11/30 01:31:41;;;;;;;7.70;5.50;;;;;;;5.21;54.26;96108.91;5067230;28;20219;-69
2023/11/30 01:34:06;;;;;;;7.50;5.87;;;;;;;5.27;53.74;96113.53;5064177;28;20200;-69
2023/11/30 01:36:32;;;;;;;7.17;5.77;;;;;;;5.40;53.51;96118.38;5070297;28;20186;-70
2023/11/30 01:38:57;;;;;;;7.20;6.20;;;;;;;5.48;53.19;96110.66;5069837;28;20647;-69
2023/11/30 01:41:23;;;;;;;9.30;6.57;;;;;;;5.49;53.11;96116.69;5064695;28;20194;-68
2023/11/30 01:43:48;;;;;;;8.70;6.70;;;;;;;5.43;53.33;96122.44;5070325;28;20190;-70
2023/11/30 01:46:14;;;;;;;7.77;6.20;;;;;;;5.40;53.37;96114.97;5070416;28;20202;-68
2023/11/30 01:48:43;;;;;;;6.93;5.43;;;;;;;5.38;53.24;96115.09;5051773;28;20208;-70
2023/11/30 01:51:08;;;;;;;7.10;5.93;;;;;;;5.32;53.36;96111.28;5052485;28;20198;-69
2023/11/30 01:53:38;;;;;;;10.57;6.27;;;;;;;5.39;53.28;96106.34;5060031;28;20441;-69
2023/11/30 01:56:06;;;;;;;8.50;6.27;;;;;;;5.38;53.84;96107.28;5066251;28;20535;-68
2023/11/30 01:58:31;;;;;;;10.80;6.40;;;;;;;5.35;53.98;96103.22;5051502;28;20451;-69
2023/11/30 02:01:00;;;;;;;10.07;6.40;;;;;;;5.33;54.19;96097.34;5052417;28;20420;-69
2023/11/30 02:03:26;;;;;;;10.20;6.10;;;;;;;5.26;54.20;96100.69;5069389;28;20197;-69
2023/11/30 02:05:52;;;;;;;7.47;5.93;;;;;;;5.17;54.27;96107.56;5062174;28;20444;-69
2023/11/30 02:08:17;;;;;;;10.90;5.60;;;;;;;5.20;54.13;96102.06;5067114;28;20460;-69
2023/11/30 02:10:43;;;;;;;9.73;6.50;;;;;;;5.16;53.88;96072.97;5049131;28;20205;-69
2023/11/30 02:16:30;;;;;;;8.30;5.90;;;;;;;5.07;54.31;96073.88;5057805;28;20551;-69
2023/11/30 02:18:56;;;;;;;7.10;6.20;;;;;;;5.01;54.27;96057.09;5051606;28;20467;-68
2023/11/30 02:21:22;;;;;;;10.50;6.87;;;;;;;4.94;54.37;96056.00;5069430;28;20665;-69
2023/11/30 02:23:48;;;;;;;10.33;6.40;;;;;;;4.96;54.69;96053.28;5067295;28;20297;-71
2023/11/30 02:26:13;;;;;;;9.13;6.40;;;;;;;4.93;54.55;96062.16;5068055;28;20198;-69
2023/11/30 02:28:39;;;;;;;8.10;6.37;;;;;;;4.90;54.48;96075.47;5068261;28;20214;-69
2023/11/30 02:31:04;;;;;;;7.87;6.43;;;;;;;4.92;54.63;96070.91;5068384;28;20229;-69
2023/11/30 02:33:29;;;;;;;8.97;6.83;;;;;;;4.86;55.09;96068.91;5067977;28;20225;-69
2023/11/30 02:35:55;;;;;;;11.73;6.33;;;;;;;4.87;54.55;96065.34;5058589;28;20725;-69
2023/11/30 02:38:21;;;;;;;7.63;5.93;;;;;;;4.84;55.13;96060.44;5061311;28;20713;-68
2023/11/30 02:40:46;;;;;;;6.50;5.80;;;;;;;4.85;55.01;96056.88;5063762;28;20198;-69
2023/11/30 02:43:11;;;;;;;7.33;5.90;;;;;;;4.82;54.66;96062.38;5066751;28;20190;-71
2023/11/30 02:45:37;;;;;;;9.40;7.07;;;;;;;4.84;55.13;96055.25;5072686;28;20214;-69
2023/11/30 02:48:02;;;;;;;7.20;5.90;;;;;;;4.90;54.69;96057.28;5073256;28;20214;-71
2023/11/30 02:50:28;;;;;;;8.60;5.40;;;;;;;4.92;54.47;96053.56;5067146;28;20190;-68
2023/11/30 02:52:53;;;;;;;7.90;6.10;;;;;;;4.87;54.68;96049.78;5068839;28;20344;-69
2023/11/30 02:55:19;;;;;;;9.63;6.00;;;;;;;4.86;54.89;96045.53;5068764;28;20240;-69
2023/11/30 02:57:44;;;;;;;5.93;5.33;;;;;;;4.84;55.11;96042.28;5067219;28;20271;-69
2023/11/30 03:00:10;;;;;;;5.97;5.10;;;;;;;4.82;54.74;96041.59;5060901;28;20703;-69
2023/11/30 03:02:35;;;;;;;8.27;6.40;;;;;;;4.82;54.72;96047.63;5067347;28;20259;-69
2023/11/30 03:05:01;;;;;;;8.83;5.57;;;;;;;4.86;54.70;96048.94;5068216;28;20197;-71
2023/11/30 03:07:26;;;;;;;7.43;5.50;;;;;;;4.85;54.60;96052.50;5062417;28;20194;-68
2023/11/30 03:09:52;;;;;;;7.43;6.20;;;;;;;4.82;54.76;96046.78;5067748;28;20282;-69
2023/11/30 03:12:17;;;;;;;8.50;6.70;;;;;;;4.76;54.91;96054.22;5068277;28;20238;-69
2023/11/30 03:14:46;;;;;;;8.43;6.13;;;;;;;4.82;55.09;96054.56;5060989;28;20201;-69
2023/11/30 03:17:11;;;;;;;7.27;6.00;;;;;;;4.79;54.98;96036.72;5067889;28;20195;-69
2023/11/30 03:19:40;;;;;;;11.77;6.80;;;;;;;4.71;55.33;96035.63;5060974;28;20490;-67
2023/11/30 03:22:05;;;;;;;9.30;7.10;;;;;;;4.79;54.65;96037.53;5066419;28;20183;-69
2023/11/30 03:24:31;;;;;;;8.10;6.80;;;;;;;4.73;54.90;96023.34;5067392;28;21185;-69
2023/11/30 03:26:56;;;;;;;8.80;6.53;;;;;;;4.73;55.33;96028.53;5067320;28;20190;-68
2023/11/30 03:29:22;;;;;;;8.80;6.73;;;;;;;4.71;55.50;96016.66;5049095;28;20249;-68
2023/11/30 03:31:47;;;;;;;10.47;6.70;;;;;;;4.70;55.35;96017.63;5055323;28;20310;-69
2023/11/30 03:34:13;;;;;;;9.30;6.87;;;;;;;4.71;55.03;96019.25;5061621;28;20671;-68
2023/11/30 03:36:38;;;;;;;9.00;6.20;;;;;;;4.79;55.03;96002.97;5066760;28;20194;-70
2023/11/30 03:39:04;;;;;;;8.77;6.73;;;;;;;4.89;54.68;96004.53;5066980;28;20283;-70
2023/11/30 03:41:30;;;;;;;8.63;6.13;;;;;;;4.90;54.57;96007.97;5057653;28;20183;-70
2023/11/30 03:43:55;;;;;;;8.10;6.83;;;;;;;4.76;55.02;95997.09;5065269;28;20317;-69
2023/11/30 03:46:24;;;;;;;8.50;6.53;;;;;;;4.74;55.21;95996.44;5043240;28;20199;-67
2023/11/30 03:48:49;;;;;;;9.67;6.87;;;;;;;4.83;55.25;95996.50;5065031;28;20216;-69
2023/11/30 03:51:14;;;;;;;7.40;6.63;;;;;;;4.91;54.22;95987.03;5067671;28;20424;-69
2023/11/30 03:53:40;;;;;;;10.33;6.57;;;;;;;4.94;54.16;95988.50;5066415;28;20209;-69
2023/11/30 03:56:05;;;;;;;11.60;6.83;;;;;;;4.99;54.06;95988.91;5059593;28;20859;-69
2023/11/30 03:58:31;;;;;;;8.13;6.30;;;;;;;4.88;54.32;95991.69;5065381;28;20727;-68
2023/11/30 04:00:56;;;;;;;7.50;6.23;;;;;;;4.75;54.30;95987.69;5061141;28;20248;-71
2023/11/30 04:03:22;;;;;;;7.70;5.87;;;;;;;4.81;54.87;95980.25;5067519;28;20189;-69
2023/11/30 04:05:47;;;;;;;7.80;6.20;;;;;;;4.87;55.14;95977.09;5048815;28;20210;-68
2023/11/30 04:08:13;;;;;;;7.67;6.20;;;;;;;4.84;54.19;95969.59;5059579;28;20216;-70
2023/11/30 04:10:38;;;;;;;7.43;6.30;;;;;;;4.84;53.99;95969.59;5061299;28;20248;-68
2023/11/30 04:13:03;;;;;;;12.40;6.07;;;;;;;4.79;54.80;95969.22;5064974;28;20222;-70
2023/11/30 04:15:29;;;;;;;8.63;6.30;;;;;;;4.87;54.85;95969.28;5067124;28;20213;-69
2023/11/30 04:17:55;;;;;;;9.40;6.40;;;;;;;4.85;54.53;95968.63;5054968;28;20687;-69
2023/11/30 04:20:21;;;;;;;7.33;6.00;;;;;;;4.94;54.15;95946.16;5065950;28;20213;-69
2023/11/30 04:22:46;;;;;;;9.70;6.57;;;;;;;5.02;54.32;95948.81;5061435;28;20927;-69
2023/11/30 04:25:12;;;;;;;9.20;6.30;;;;;;;5.01;53.87;95953.22;5064471;28;20278;-70
2023/11/30 04:27:37;;;;;;;11.33;6.70;;;;;;;5.03;54.31;95943.50;5064665;28;20195;-69
2023/11/30 04:30:04;;;;;;;9.90;7.10;;;;;;;4.99;53.77;95938.72;5067973;28;20617;-68
2023/11/30 04:32:29;;;;;;;13.33;7.63;;;;;;;5.00;54.76;95936.00;5041671;28;20206;-69
2023/11/30 04:34:54;;;;;;;7.87;6.90;;;;;;;4.96;54.83;95924.25;5039189;28;20539;-71
2023/11/30 04:37:20;;;;;;;8.20;6.37;;;;;;;4.99;54.26;95934.38;5058813;28;20650;-68
2023/11/30 04:39:45;;;;;;;11.10;7.13;;;;;;;5.02;54.29;95934.06;5065899;28;20612;-69
2023/11/30 04:42:11;;;;;;;7.93;6.57;;;;;;;5.08;54.56;95933.47;5055416;28;20193;-69
2023/11/30 04:44:36;;;;;;;10.10;7.23;;;;;;;5.12;54.20;95938.38;5047387;28;20236;-69
2023/11/30 04:47:02;;;;;;;8.73;6.83;;;;;;;5.10;54.57;95942.88;5067921;28;20198;-68
2023/11/30 04:49:27;;;;;;;7.73;6.93;;;;;;;5.08;54.17;95954.25;5069766;28;20220;-71
2023/11/30 04:51:52;;;;;;;10.83;6.80;;;;;;;4.98;53.78;95945.72;5065437;28;20843;-69
2023/11/30 04:54:18;;;;;;;11.77;7.13;;;;;;;4.91;54.29;95950.69;5071216;28;20555;-70
2023/11/30 04:56:43;;;;;;;7.20;6.20;;;;;;;4.99;54.57;95949.94;5068329;28;20190;-71
2023/11/30 04:59:09;;;;;;;8.40;6.03;;;;;;;4.92;54.16;95925.50;5066187;28;20209;-68
2023/11/30 05:01:34;;;;;;;9.50;6.23;;;;;;;4.88;54.34;95921.59;5071200;28;20227;-69
2023/11/30 05:04:00;;;;;;;9.57;7.00;;;;;;;4.88;54.24;95919.81;5064026;28;20237;-69
2023/11/30 05:06:25;;;;;;;7.00;6.03;;;;;;;4.92;54.15;95922.91;5070701;28;20261;-67
2023/11/30 05:08:51;;;;;;;11.17;6.53;;;;;;;4.96;54.63;95923.47;5062004;28;20241;-70
2023/11/30 05:11:16;;;;;;;10.73;6.63;;;;;;;4.99;54.45;95934.38;5068752;28;20210;-68
2023/11/30 05:13:42;;;;;;;9.20;6.47;;;;;;;4.86;53.97;95934.72;5053089;28;20735;-69
2023/11/30 05:16:07;;;;;;;11.30;6.77;;;;;;;4.83;54.34;95939.38;5069661;28;20273;-69
2023/11/30 05:18:33;;;;;;;9.00;6.20;;;;;;;4.77;54.55;95945.97;5068818;28;20861;-70
2023/11/30 05:20:58;;;;;;;13.13;7.53;;;;;;;4.75;54.80;95948.75;5050821;28;20296;-70
2023/11/30 05:23:24;;;;;;;8.20;6.77;;;;;;;4.71;55.36;95947.41;5071904;28;20198;-67
2023/11/30 05:25:50;;;;;;;11.40;6.97;;;;;;;4.70;54.90;95927.59;5069626;28;20182;-70
2023/11/30 05:28:16;;;;;;;9.27;6.63;;;;;;;4.61;55.08;95912.91;5068857;28;20276;-69
2023/11/30 05:30:42;;;;;;;8.97;6.63;;;;;;;4.70;54.88;95925.00;5067960;28;20269;-70
2023/11/30 05:33:07;;;;;;;15.33;7.30;;;;;;;4.65;55.29;95931.59;5069465;28;20555;-69
2023/11/30 05:35:34;;;;;;;12.90;7.10;;;;;;;4.71;55.33;95926.63;5068270;28;20193;-68
2023/11/30 05:38:00;;;;;;;9.67;6.87;;;;;;;4.80;55.28;95934.47;5067552;28;20264;-69
2023/11/30 05:40:26;;;;;;;10.83;7.60;;;;;;;4.76;55.74;95928.78;5070319;28;20417;-69
2023/11/30 05:42:52;;;;;;;9.50;7.50;;;;;;;4.82;55.24;95935.16;5067446;28;20417;-70
2023/11/30 05:45:17;;;;;;;9.87;7.20;;;;;;;4.81;55.35;95930.94;5070126;28;20973;-69
2023/11/30 05:47:43;;;;;;;11.93;6.90;;;;;;;4.84;55.09;95922.84;5059229;28;20562;-69
2023/11/30 05:50:09;;;;;;;10.43;7.67;;;;;;;4.84;54.67;95920.25;5066133;28;20221;-70
2023/11/30 05:52:35;;;;;;;11.37;8.40;;;;;;;4.74;54.92;95920.31;5066036;28;20294;-69
2023/11/30 05:55:01;;;;;;;10.63;8.00;;;;;;;4.80;55.41;95911.13;5068563;28;20874;-71
2023/11/30 05:57:26;;;;;;;15.70;11.10;;;;;;;4.84;55.22;95910.72;5068843;28;20456;-71
2023/11/30 05:59:52;;;;;;;16.40;9.40;;;;;;;4.79;55.74;95915.50;5068440;28;20579;-70
2023/11/30 06:02:17;;;;;;;10.43;6.97;;;;;;;4.87;55.14;95907.00;5069838;28;20282;-70
2023/11/30 06:04:53;;;;;;;10.30;7.50;;;;;;;4.90;55.47;95910.09;5068945;28;20190;-68
2023/11/30 06:07:19;;;;;;;11.03;7.70;;;;;;;4.85;54.86;95906.31;5067330;28;20580;-69
2023/11/30 06:09:45;;;;;;;11.23;7.50;;;;;;;4.82;55.34;95902.25;5051074;28;20486;-69
2023/11/30 06:12:11;;;;;;;8.60;7.13;;;;;;;4.81;55.42;95894.59;5060977;28;20467;-70
2023/11/30 06:14:37;;;;;;;10.03;6.77;;;;;;;4.87;55.29;95889.63;5069372;28;20197;-68
2023/11/30 06:17:02;;;;;;;8.70;6.60;;;;;;;4.90;55.14;95893.72;5068535;28;20191;-69
2023/11/30 06:19:28;;;;;;;8.53;6.87;;;;;;;4.87;55.70;95891.41;5068744;28;20259;-70
2023/11/30 06:21:54;;;;;;;10.40;7.27;;;;;;;4.91;55.69;95890.97;5068740;28;20293;-68
2023/11/30 06:24:20;;;;;;;9.87;7.43;;;;;;;4.95;55.09;95885.47;5069001;28;20520;-68
2023/11/30 06:26:45;;;;;;;8.40;6.63;;;;;;;5.01;55.47;95875.31;5069698;28;20289;-69
2023/11/30 06:29:11;;;;;;;9.33;6.60;;;;;;;4.93;55.33;95872.63;5067859;28;20233;-70
2023/11/30 06:31:39;;;;;;;9.20;6.50;;;;;;;4.90;55.44;95876.34;5063410;28;20516;-69
2023/11/30 06:34:05;;;;;;;11.43;7.60;;;;;;;4.91;56.08;95875.38;5041017;28;20248;-67
2023/11/30 06:36:31;;;;;;;13.03;7.87;;;;;;;4.96;55.73;95871.53;5061871;28;20441;-70
2023/11/30 06:38:56;;;;;;;11.27;8.00;;;;;;;4.94;55.84;95871.66;5068174;28;20221;-69
2023/11/30 06:41:22;;;;;;;11.77;8.10;;;;;;;5.03;55.37;95865.59;5061983;28;20301;-68
2023/11/30 06:43:47;;;;;;;11.77;8.30;;;;;;;5.00;55.68;95860.69;5066340;28;20195;-70
2023/11/30 06:46:20;;;;;;;12.50;7.93;;;;;;;4.99;55.53;95860.81;5066651;28;20231;-70
2023/11/30 06:48:47;;;;;;;11.73;7.80;;;;;;;5.00;55.40;95858.09;5067151;28;20213;-69
2023/11/30 06:51:15;;;;;;;10.50;7.50;;;;;;;5.04;55.36;95858.59;5060947;28;20439;-67
2023/11/30 06:53:41;;;;;;;19.10;12.33;;;;;;;4.99;55.38;95859.06;5066365;28;20464;-68
2023/11/30 06:56:09;;;;;;;15.47;10.70;;;;;;;5.05;54.98;95863.63;5066982;28;20519;-70
2023/11/30 06:58:34;;;;;;;15.90;10.90;;;;;;;5.10;54.98;95872.78;5062114;28;20299;-69
2023/11/30 07:01:00;;;;;;;15.27;9.90;;;;;;;5.13;54.71;95869.88;5042667;28;20429;-68
2023/11/30 07:03:28;;;;;;;19.07;11.73;;;;;;;5.15;54.29;95865.34;5062852;28;20572;-71
2023/11/30 07:05:54;;;;;;;17.03;10.23;;;;;;;5.12;54.10;95871.66;5045279;28;20637;-68
2023/11/30 07:08:19;;;;;;;16.93;9.90;;;;;;;5.13;54.63;95862.09;5068521;28;20511;-68
2023/11/30 07:10:45;;;;;;;18.03;9.83;;;;;;;5.01;55.21;95867.53;5064134;28;20546;-68
2023/11/30 07:13:11;;;;;;;14.03;9.20;;;;;;;5.01;54.54;95858.91;5065592;28;20241;-68
2023/11/30 07:15:37;;;;;;;15.07;9.60;;;;;;;5.02;55.22;95844.94;5067896;28;20473;-69
2023/11/30 07:18:03;;;;;;;14.27;8.63;;;;;;;5.00;54.65;95839.91;5066987;28;20205;-68
2023/11/30 07:20:29;;;;;;;13.90;9.00;;;;;;;4.95;54.92;95847.34;5065331;28;20183;-72
2023/11/30 07:22:54;;;;;;;14.47;8.27;;;;;;;4.90;55.53;95846.97;5067860;28;20517;-68
2023/11/30 07:25:20;;;;;;;16.17;9.23;;;;;;;4.98;55.54;95851.44;5064982;28;20281;-68
2023/11/30 07:27:45;;;;;;;13.53;8.33;;;;;;;4.98;55.13;95854.81;5067488;28;20230;-70
2023/11/30 07:30:11;;;;;;;10.73;7.63;;;;;;;4.96;55.45;95856.75;5065642;28;20205;-68
2023/11/30 07:32:37;;;;;;;12.80;8.20;;;;;;;4.95;56.05;95864.69;5065622;28;20302;-70
2023/11/30 07:35:04;;;;;;;8.73;7.50;;;;;;;5.03;55.79;95863.00;5065331;28;21042;-69
2023/11/30 07:37:30;;;;;;;13.80;9.10;;;;;;;5.06;55.11;95862.66;5059317;28;20186;-70
2023/11/30 07:39:56;;;;;;;15.80;9.60;;;;;;;5.04;55.27;95869.00;5065807;28;20452;-67
2023/11/30 07:42:21;;;;;;;11.83;9.17;;;;;;;5.05;55.23;95870.63;5066989;28;20425;-69
2023/11/30 07:44:47;;;;;;;13.23;9.43;;;;;;;5.14;54.98;95874.91;5046450;28;20183;-69
2023/11/30 07:47:12;;;;;;;14.10;9.47;;;;;;;5.16;54.60;95872.97;5062823;28;20213;-69
2023/11/30 07:49:38;;;;;;;17.63;10.30;;;;;;;5.16;54.87;95869.59;5060580;28;20262;-69
2023/11/30 07:52:03;;;;;;;12.80;9.40;;;;;;;5.13;55.57;95864.69;5067859;28;20202;-68
2023/11/30 07:54:29;;;;;;;13.20;9.77;;;;;;;5.03;55.52;95857.81;5067943;28;20194;-69
2023/11/30 07:56:54;;;;;;;13.33;9.13;;;;;;;4.94;56.04;95848.28;5072380;28;20247;-69
2023/11/30 07:59:20;;;;;;;12.30;9.57;;;;;;;5.05;55.00;95847.25;5069606;28;20300;-68
2023/11/30 08:01:46;;;;;;;13.90;9.30;;;;;;;4.99;55.43;95846.06;5067334;28;20235;-69
2023/11/30 08:04:11;;;;;;;13.60;10.07;;;;;;;4.97;54.88;95840.22;5066225;28;20190;-68
2023/11/30 08:06:37;;;;;;;21.53;9.37;;;;;;;4.99;54.71;95840.88;5066584;28;20447;-70
2023/11/30 08:09:03;;;;;;;14.67;9.40;;;;;;;5.00;55.40;95836.50;5062602;28;20210;-70
2023/11/30 08:11:29;;;;;;;17.73;9.60;;;;;;;5.04;55.46;95830.84;5067435;28;20186;-67
2023/11/30 08:13:54;;;;;;;16.10;10.50;;;;;;;5.03;55.18;95847.41;5065369;28;20522;-69
2023/11/30 08:16:19;;;;;;;15.87;10.97;;;;;;;5.09;55.39;95856.38;5069785;28;20405;-68
2023/11/30 08:18:45;;;;;;;13.10;9.40;;;;;;;5.18;55.78;95854.63;5064723;28;20233;-68
2023/11/30 08:21:10;;;;;;;21.30;10.10;;;;;;;5.13;55.08;95849.09;5065629;28;20685;-68
2023/11/30 08:23:37;;;;;;;15.07;9.67;;;;;;;5.13;54.84;95852.50;5063135;28;20193;-68
2023/11/30 08:26:03;;;;;;;16.50;10.20;;;;;;;5.20;55.41;95857.91;5061228;28;20193;-68
2023/11/30 08:28:29;;;;;;;15.17;10.07;;;;;;;5.15;55.06;95860.16;5065473;28;20476;-68
2023/11/30 08:30:55;;;;;;;17.33;9.87;;;;;;;5.22;55.08;95851.59;5060261;28;20457;-70
2023/11/30 08:33:21;;;;;;;13.80;10.23;;;;;;;5.21;54.82;95839.59;5069640;28;20464;-68
2023/11/30 08:35:46;;;;;;;18.40;10.33;;;;;;;5.22;55.17;95836.03;5069218;28;20204;-69
2023/11/30 08:38:11;;;;;;;15.70;10.80;;;;;;;5.23;55.05;95845.41;5063433;28;20452;-69
2023/11/30 08:40:37;;;;;;;17.70;11.53;;;;;;;5.27;54.77;95843.34;5064532;28;20206;-68
2023/11/30 08:43:02;;;;;;;17.03;10.90;;;;;;;5.33;54.86;95834.94;5068912;28;20613;-68
2023/11/30 08:45:28;;;;;;;13.77;9.90;;;;;;;5.36;54.45;95820.81;5051919;28;20591;-70
2023/11/30 08:47:53;;;;;;;16.07;11.27;;;;;;;5.31;54.98;95823.88;5070609;28;20221;-69
2023/11/30 08:50:19;;;;;;;14.53;10.63;;;;;;;5.34;54.60;95826.19;5064278;28;20197;-69
2023/11/30 08:52:45;;;;;;;14.37;10.23;;;;;;;5.40;54.40;95829.16;5051304;28;20675;-69
2023/11/30 08:55:11;;;;;;;28.03;10.63;;;;;;;5.46;54.59;95831.94;5065228;28;20251;-69
2023/11/30 08:57:36;;;;;;;17.33;11.20;;;;;;;5.43;54.90;95828.81;5070149;28;20187;-69
2023/11/30 09:00:06;;;;;;;20.77;11.67;;;;;;;5.37;54.57;95825.88;5070599;28;20452;-69
2023/11/30 09:02:31;;;;;;;16.10;11.70;;;;;;;5.41;54.50;95828.19;5049333;28;20741;-70
2023/11/30 09:04:57;;;;;;;26.03;12.40;;;;;;;5.46;54.32;95824.16;5068924;28;20504;-69
2023/11/30 09:07:22;;;;;;;19.93;12.97;;;;;;;5.55;54.84;95819.78;5047724;28;20193;-69
2023/11/30 09:09:48;;;;;;;22.10;11.23;;;;;;;5.54;55.00;95818.19;5066969;28;20336;-69
2023/11/30 09:12:13;;;;;;;24.43;12.30;;;;;;;5.66;55.44;95810.91;5062826;28;20279;-71
2023/11/30 09:14:39;;;;;;;22.33;11.80;;;;;;;5.78;55.26;95820.06;5064530;28;20315;-68
2023/11/30 09:17:05;;;;;;;26.83;12.83;;;;;;;5.91;55.71;95824.84;5066357;28;20229;-68
2023/11/30 09:19:31;;;;;;;19.80;12.90;;;;;;;5.92;54.82;95825.66;5067981;28;20210;-68
2023/11/30 09:21:57;;;;;;;20.63;12.73;;;;;;;6.07;55.65;95825.88;5061760;28;20672;-68
2023/11/30 09:24:22;;;;;;;19.20;13.17;;;;;;;6.19;55.50;95824.63;5068956;28;20447;-68
2023/11/30 09:26:50;;;;;;;20.17;13.23;;;;;;;6.14;54.46;95821.69;5057320;28;20199;-69
2023/11/30 09:29:16;;;;;;;17.13;12.03;;;;;;;6.26;54.56;95822.19;5068957;28;20224;-69
2023/11/30 09:31:41;;;;;;;18.80;12.20;;;;;;;6.26;53.73;95817.00;5068465;28;20437;-69
2023/11/30 09:34:07;;;;;;;18.23;12.23;;;;;;;6.34;53.71;95808.41;5057149;28;20216;-68
2023/11/30 09:36:32;;;;;;;17.50;12.53;;;;;;;6.38;53.40;95823.53;5056096;28;20195;-67
2023/11/30 09:38:58;;;;;;;19.57;13.23;;;;;;;6.38;53.12;95809.72;5056146;28;20247;-68
2023/11/30 09:41:23;;;;;;;18.17;12.70;;;;;;;6.38;53.29;95804.50;5059939;28;20253;-68
2023/11/30 09:43:49;;;;;;;19.87;13.83;;;;;;;6.39;53.20;95817.34;5067428;28;20656;-68
2023/11/30 09:46:14;;;;;;;19.20;12.43;;;;;;;6.37;53.34;95818.50;5067038;28;20194;-69
2023/11/30 09:48:40;;;;;;;23.60;13.57;;;;;;;6.45;53.47;95818.50;5067418;28;20214;-69
2023/11/30 09:51:06;;;;;;;16.07;11.83;;;;;;;6.47;53.34;95820.97;5044444;28;20677;-68
2023/11/30 09:53:31;;;;;;;21.07;13.33;;;;;;;6.52;53.64;95816.91;5048292;28;20837;-67
2023/11/30 09:55:57;;;;;;;19.20;11.87;;;;;;;6.57;53.47;95813.81;5057852;28;20514;-68
2023/11/30 09:58:22;;;;;;;18.50;12.17;;;;;;;6.54;53.18;95795.91;5058219;28;20274;-67
2023/11/30 10:00:47;;;;;;;17.13;11.50;;;;;;;6.54;53.01;95812.34;5064761;28;20229;-70
2023/11/30 10:03:13;;;;;;;21.67;11.37;;;;;;;6.60;52.79;95803.88;5051425;28;20725;-69
2023/11/30 10:05:41;;;;;;;19.53;11.47;;;;;;;6.68;53.01;95791.88;5066242;28;20271;-68
2023/11/30 10:08:07;;;;;;;20.80;11.10;;;;;;;6.64;53.13;95783.53;5049657;28;20213;-69
2023/11/30 10:10:33;;;;;;;18.47;12.43;;;;;;;6.64;52.83;95778.34;5051005;28;20444;-68
2023/11/30 10:12:59;;;;;;;18.60;12.67;;;;;;;6.62;52.95;95769.88;5069397;28;20533;-69
2023/11/30 10:15:25;;;;;;;17.50;12.03;;;;;;;6.64;52.83;95772.31;5064961;28;20209;-69
2023/11/30 10:17:51;;;;;;;20.57;12.80;;;;;;;6.64;52.96;95761.91;5058295;28;20183;-67
2023/11/30 10:20:18;;;;;;;18.27;12.57;;;;;;;6.64;53.13;95761.91;5066388;28;21000;-69
2023/11/30 10:22:43;;;;;;;22.40;12.90;;;;;;;6.67;53.18;95767.59;5069456;28;20186;-68
2023/11/30 10:25:09;;;;;;;21.47;13.80;;;;;;;6.70;52.88;95763.84;5069375;28;20551;-68
2023/11/30 10:27:35;;;;;;;19.23;11.57;;;;;;;6.79;53.36;95757.69;5061336;28;20199;-70
2023/11/30 10:30:03;;;;;;;14.60;10.77;;;;;;;6.83;52.58;95745.13;5047046;28;20504;-68
2023/11/30 10:32:31;;;;;;;14.67;10.60;;;;;;;6.76;52.63;95758.00;5071638;28;20460;-69
2023/11/30 10:34:57;;;;;;;14.67;10.43;;;;;;;6.88;52.40;95753.25;5047345;28;21140;-68
2023/11/30 10:37:25;;;;;;;21.30;11.83;;;;;;;6.96;52.34;95752.44;5049346;28;20442;-68
2023/11/30 10:40:04;;;;;;;13.90;10.43;;;;;;;7.03;52.08;95750.81;5069322;28;20213;-67
2023/11/30 10:42:32;;;;;;;13.90;11.40;;;;;;;7.13;51.33;95761.88;5044408;28;21016;-69
2023/11/30 10:45:01;;;;;;;14.70;11.37;;;;;;;7.18;51.65;95758.75;5068819;28;20444;-68
2023/11/30 10:47:28;;;;;;;19.30;11.50;;;;;;;7.21;51.41;95754.00;5066984;28;20449;-68
2023/11/30 10:49:53;;;;;;;24.13;10.80;;;;;;;7.25;50.88;95759.69;5062568;28;20452;-68
2023/11/30 10:52:19;;;;;;;15.90;9.97;;;;;;;7.26;51.21;95755.31;5048471;28;20469;-68
2023/11/30 10:54:58;;;;;;;19.43;11.50;;;;;;;7.28;51.31;95753.38;5051145;28;20637;-67
2023/11/30 10:57:24;;;;;;;14.67;10.97;;;;;;;7.37;51.33;95741.94;5068218;28;20221;-68
2023/11/30 10:59:57;;;;;;;14.37;10.63;;;;;;;7.35;51.03;95743.88;5068815;28;20923;-69
2023/11/30 11:02:22;;;;;;;16.30;11.20;;;;;;;7.34;50.74;95732.66;5056620;28;20217;-68
2023/11/30 11:04:49;;;;;;;16.80;10.47;;;;;;;7.32;51.22;95734.63;5064645;28;20430;-68
2023/11/30 11:07:16;;;;;;;15.00;10.73;;;;;;;7.31;51.99;95737.41;5060585;28;20587;-68
2023/11/30 11:09:51;;;;;;;11.43;10.03;;;;;;;7.39;51.76;95742.56;5050062;28;20497;-69
2023/11/30 11:12:24;;;;;;;20.00;10.97;;;;;;;7.45;51.46;95728.06;5063370;28;20476;-68
2023/11/30 11:14:52;;;;;;;15.13;10.80;;;;;;;7.46;51.54;95733.09;5062122;28;20437;-69
2023/11/30 11:17:21;;;;;;;14.27;10.50;;;;;;;7.37;51.18;95739.31;5067543;28;20441;-67
2023/11/30 11:19:47;;;;;;;14.30;10.67;;;;;;;7.39;50.78;95734.75;5043359;28;20534;-69
2023/11/30 11:22:14;;;;;;;12.23;10.47;;;;;;;7.37;51.15;95741.94;5066609;28;20907;-68
2023/11/30 11:24:40;;;;;;;11.90;10.10;;;;;;;7.37;51.02;95739.31;5056111;28;21610;-71
2023/11/30 11:27:05;;;;;;;12.97;9.77;;;;;;;7.32;51.27;95736.41;5065145;28;20429;-70
2023/11/30 11:29:31;;;;;;;13.37;10.37;;;;;;;7.31;51.63;95743.41;5058846;28;20516;-71
2023/11/30 11:31:58;;;;;;;14.33;9.83;;;;;;;7.30;51.67;95741.00;5068455;28;20222;-70